Forseti — V2PV4 — position and weather

sailwx.info

Track history (hours):
 
Tides and Currents Weather Stations Pressure Air Temp Water Temp Dewpoint Dewpoint Depression Visibility Wind Speed Wind Dir Waves Ship Positions

Forseti

Last reported at 2018-Apr-25 20:16 UTC. Time now 2018-Apr-25 22:06 UTC.
Position N 55°19' E 019°12'.

Length 85 m; draft 3.8 m.

Type: Cargo ship. MMSI: 304010297.

Date/timePositionNaut miles runAvg speedWind from/ knotsBaromVisibWave heightAir tempDewpointWater temp
2018-Apr-25 20:16N 55°19' E 019°12'4 8.8
2018-Apr-25 19:50N 55°17' E 019°06'14 8.8
2018-Apr-25 18:15N 55°12' E 018°42'2 9.0
2018-Apr-25 18:00N 55°11' E 018°39'5 9.1
2018-Apr-25 17:29N 55°10' E 018°31'15210.2
2018-Apr-25 02:32N 54°38' E 014°13'1210.8
2018-Apr-25 01:27N 54°42' E 013°54'4710.7
2018-Apr-24 21:03N 54°36' E 012°33'110.9
2018-Apr-24 21:00N 54°36' E 012°32'1810.2
2018-Apr-24 19:15N 54°24' E 012°08'310.7
2018-Apr-24 19:00N 54°24' E 012°04'510.0
2018-Apr-24 18:30N 54°22' E 011°56'2210.6
2018-Apr-24 16:24N 54°06' E 011°30'411.0
2018-Apr-24 16:00N 54°03' E 011°25'5 9.5
2018-Apr-24 15:30N 53°59' E 011°20'5 9.6
2018-Apr-24 15:00N 53°56' E 011°26'2 3.9
2018-Apr-24 14:30N 53°54' E 011°28'0 0.0
2018-Apr-24 14:00N 53°54' E 011°28'0 0.0
2018-Apr-24 13:30N 53°54' E 011°28'0 0.0
2018-Apr-24 13:00N 53°54' E 011°28'0 0.0
2018-Apr-24 12:30N 53°54' E 011°28'0 0.0
2018-Apr-24 12:00N 53°54' E 011°28'0 0.0
2018-Apr-24 11:30N 53°54' E 011°28'0 0.0
2018-Apr-24 11:00N 53°54' E 011°28'0 0.0
2018-Apr-24 10:30N 53°54' E 011°28'0 0.0
2018-Apr-24 10:00N 53°54' E 011°28'0 0.0
2018-Apr-24 09:30N 53°54' E 011°28'0 0.0
2018-Apr-24 09:00N 53°54' E 011°28'0 0.0
2018-Apr-24 08:30N 53°54' E 011°28'0 0.1
2018-Apr-24 08:00N 53°54' E 011°28'0 0.0
2018-Apr-24 07:30N 53°54' E 011°28'0 0.0
2018-Apr-24 07:00N 53°54' E 011°28'0 0.0
2018-Apr-24 06:30N 53°54' E 011°28'0 0.0
2018-Apr-24 06:00N 53°54' E 011°28'0 0.0
2018-Apr-24 05:30N 53°54' E 011°28'0 0.0
2018-Apr-24 05:00N 53°54' E 011°28'0 0.0
2018-Apr-24 04:30N 53°54' E 011°28'0 0.0
2018-Apr-24 04:00N 53°54' E 011°28'0 0.0
2018-Apr-24 03:30N 53°54' E 011°28'0 0.0
2018-Apr-24 03:00N 53°54' E 011°28'0 0.0
2018-Apr-24 02:30N 53°54' E 011°28'0 0.0
2018-Apr-24 02:00N 53°54' E 011°28'0 0.0
2018-Apr-24 01:30N 53°54' E 011°28'0 0.0
2018-Apr-24 01:00N 53°54' E 011°28'0 0.0
2018-Apr-24 00:30N 53°54' E 011°28'0 0.0
2018-Apr-24 00:00N 53°54' E 011°28'0 0.0
2018-Apr-23 23:30N 53°54' E 011°28'0 0.0
2018-Apr-23 23:00N 53°54' E 011°28'0 0.0
2018-Apr-23 22:30N 53°54' E 011°28'0 0.0
2018-Apr-23 22:00N 53°54' E 011°28'0 0.0
2018-Apr-23 21:27N 53°54' E 011°28'0 0.0
2018-Apr-23 21:00N 53°54' E 011°28'0 0.0
2018-Apr-23 20:30N 53°54' E 011°28'0 0.0
2018-Apr-23 20:00N 53°54' E 011°28'0 0.0
2018-Apr-23 19:30N 53°54' E 011°28'0 0.0
2018-Apr-23 19:00N 53°54' E 011°28'0 0.0
2018-Apr-23 18:30N 53°54' E 011°28'0 0.0
2018-Apr-23 18:00N 53°54' E 011°28'0 0.0
2018-Apr-23 17:30N 53°54' E 011°28'0 0.0
2018-Apr-23 17:00N 53°54' E 011°28'0 0.0
2018-Apr-23 16:30N 53°54' E 011°28'0 0.0
2018-Apr-23 16:00N 53°54' E 011°28'0 0.0
2018-Apr-23 15:30N 53°54' E 011°28'0 0.0
2018-Apr-23 15:00N 53°54' E 011°28'0 0.0
2018-Apr-23 14:30N 53°54' E 011°28'0 0.0
2018-Apr-23 14:00N 53°54' E 011°28'0 0.0
2018-Apr-23 13:30N 53°54' E 011°28'0 0.0
2018-Apr-23 12:59N 53°54' E 011°28'0 0.0
2018-Apr-23 12:29N 53°54' E 011°28'0 0.0
2018-Apr-23 11:59N 53°54' E 011°28'0 0.0
2018-Apr-23 11:29N 53°54' E 011°28'0 0.0
2018-Apr-23 10:59N 53°54' E 011°28'0 0.0
2018-Apr-23 10:29N 53°54' E 011°28'0 0.0
2018-Apr-23 09:59N 53°54' E 011°28'0 0.0
2018-Apr-23 09:29N 53°54' E 011°28'0 0.0
2018-Apr-23 08:59N 53°54' E 011°28'0 0.0
2018-Apr-23 08:29N 53°54' E 011°28'0 0.0
2018-Apr-23 07:59N 53°54' E 011°28'0 0.0
2018-Apr-23 07:29N 53°54' E 011°28'0 0.0
2018-Apr-23 06:59N 53°54' E 011°28'0 0.0
2018-Apr-23 06:29N 53°54' E 011°28'0 0.0
2018-Apr-23 05:59N 53°54' E 011°28'0 0.0
2018-Apr-23 05:29N 53°54' E 011°28'0 0.0
2018-Apr-23 04:59N 53°54' E 011°28'0 0.0
2018-Apr-23 04:29N 53°54' E 011°28'0 0.0
2018-Apr-23 03:59N 53°54' E 011°28'0 0.0
2018-Apr-23 03:29N 53°54' E 011°28'0 0.0
2018-Apr-23 02:59N 53°54' E 011°28'0 0.0
2018-Apr-23 02:29N 53°54' E 011°28'0 0.0
2018-Apr-23 01:56N 53°54' E 011°28'0 0.0
2018-Apr-23 01:29N 53°54' E 011°28'0 0.0
2018-Apr-23 00:59N 53°54' E 011°28'0 0.0
2018-Apr-23 00:29N 53°54' E 011°28'0 0.0
2018-Apr-22 23:59N 53°54' E 011°28'0 0.0
2018-Apr-22 23:29N 53°54' E 011°28'0 0.0
2018-Apr-22 22:59N 53°54' E 011°28'0 0.0
2018-Apr-22 22:29N 53°54' E 011°28'0 0.0
2018-Apr-22 21:59N 53°54' E 011°28'0 0.0
2018-Apr-22 21:29N 53°54' E 011°28'0 0.0
2018-Apr-22 20:59N 53°54' E 011°28'0 0.0
2018-Apr-22 20:29N 53°54' E 011°28'0 0.0
2018-Apr-22 19:59N 53°54' E 011°28'0 0.0
2018-Apr-22 19:29N 53°54' E 011°28'0 0.0
2018-Apr-22 18:59N 53°54' E 011°28'0 0.0
2018-Apr-22 18:29N 53°54' E 011°28'0 0.0
2018-Apr-22 18:00N 53°54' E 011°28'2 3.8
2018-Apr-22 17:30N 53°55' E 011°26'5 9.1
2018-Apr-22 17:00N 53°59' E 011°20'4 7.9
2018-Apr-22 16:30N 54°02' E 011°24'4 8.5
2018-Apr-22 16:00N 54°06' E 011°26'610.3
2018-Apr-22 15:27N 54°12' E 011°26'510.4
2018-Apr-22 14:55N 54°17' E 011°25'410.4
2018-Apr-22 14:30N 54°22' E 011°24'510.0
2018-Apr-22 14:00N 54°26' E 011°23'510.0
2018-Apr-22 13:30N 54°31' E 011°20'510.0
2018-Apr-22 13:00N 54°34' E 011°13'510.2
2018-Apr-22 12:30N 54°37' E 011°06'510.0
2018-Apr-22 12:00N 54°39' E 010°59'5 9.2
2018-Apr-22 11:30N 54°42' E 010°52'5 9.5
2018-Apr-22 11:00N 54°47' E 010°52'510.1
2018-Apr-22 10:30N 54°52' E 010°53'510.5
2018-Apr-22 10:00N 54°57' E 010°57'510.4
2018-Apr-22 09:30N 55°02' E 011°01'611.0
2018-Apr-22 09:00N 55°07' E 011°02'510.9
2018-Apr-22 08:30N 55°12' E 011°03'510.8
2018-Apr-22 08:00N 55°18' E 011°02'510.7
2018-Apr-22 07:30N 55°23' E 011°00'610.8
2018-Apr-22 06:56N 55°28' E 010°55'410.5
2018-Apr-22 06:30N 55°32' E 010°51'610.9
2018-Apr-22 05:58N 55°38' E 010°47'9010.0
2018-Apr-21 20:54N 57°08' E 010°46'810.1
2018-Apr-21 20:09N 57°15' E 010°42'2 9.6
2018-Apr-21 19:59N 57°17' E 010°42'5 9.7
2018-Apr-21 19:30N 57°21' E 010°42'5 9.8
2018-Apr-21 19:00N 57°26' E 010°43'5 9.4
2018-Apr-21 18:30N 57°31' E 010°43'5 9.4
2018-Apr-21 18:00N 57°36' E 010°43'5 9.6
2018-Apr-21 17:30N 57°40' E 010°44'510.2
2018-Apr-21 17:00N 57°46' E 010°44'711.2
2018-Apr-21 16:24N 57°46' E 010°32'511.5
2018-Apr-21 16:00N 57°44' E 010°23'510.8
2018-Apr-21 15:30N 57°42' E 010°14'510.7
2018-Apr-21 15:00N 57°41' E 010°04'386 9.5
2018-Apr-19 22:33N 56°14' W 001°26'110.4
2018-Apr-19 22:26N 56°14' W 001°28'510.4
2018-Apr-19 22:00N 56°13' W 001°36'510.4
2018-Apr-19 21:30N 56°12' W 001°45'710.5
2018-Apr-19 20:50N 56°11' W 001°58'310.5
2018-Apr-19 20:30N 56°10' W 002°04'510.7
2018-Apr-19 20:00N 56°09' W 002°13'510.4
2018-Apr-19 19:30N 56°08' W 002°22'510.4
2018-Apr-19 19:00N 56°07' W 002°31'611.5
2018-Apr-19 18:30N 56°06' W 002°41'611.2
2018-Apr-19 18:00N 56°05' W 002°51'510.6
2018-Apr-19 17:30N 56°03' W 003°00'510.2
2018-Apr-19 17:00N 56°03' W 003°09'510.0
2018-Apr-19 16:30N 56°01' W 003°18'3 0.2
2018-Apr-19 03:36N 56°01' W 003°24'0 0.0
2018-Apr-19 03:30N 56°01' W 003°24'0 0.0
2018-Apr-19 02:51N 56°01' W 003°24'0 0.0
2018-Apr-19 02:30N 56°01' W 003°24'0 0.0
2018-Apr-19 02:00N 56°01' W 003°24'1 1.9
2018-Apr-19 01:30N 56°01' W 003°22'3 6.2
2018-Apr-19 01:00N 56°02' W 003°17'611.0
2018-Apr-19 00:30N 56°03' W 003°07'1 1.7
2018-Apr-19 00:00N 56°02' W 003°07'0 0.1
2018-Apr-18 23:30N 56°02' W 003°07'0 0.0
2018-Apr-18 23:00N 56°02' W 003°07'0 0.0
2018-Apr-18 22:30N 56°02' W 003°07'0 0.0
2018-Apr-18 22:00N 56°02' W 003°07'0 0.0
2018-Apr-18 21:30N 56°02' W 003°07'0 0.0
2018-Apr-18 21:00N 56°02' W 003°07'0 0.0
2018-Apr-18 20:30N 56°02' W 003°07'0 0.0
2018-Apr-18 20:00N 56°02' W 003°07'0 0.0
2018-Apr-18 19:30N 56°02' W 003°07'1 1.1
2018-Apr-18 19:00N 56°02' W 003°06'5 9.5
2018-Apr-18 18:30N 56°04' W 002°58'510.3
2018-Apr-18 18:00N 56°05' W 002°49'510.1
2018-Apr-18 17:30N 56°05' W 002°40'5 9.9
2018-Apr-18 17:00N 56°04' W 002°31'510.5
2018-Apr-18 16:30N 56°01' W 002°23'5 9.7
2018-Apr-18 16:00N 55°59' W 002°15'5 9.5
2018-Apr-18 15:30N 55°57' W 002°08'510.0
2018-Apr-18 15:00N 55°54' W 002°01'5 9.9
2018-Apr-18 14:30N 55°51' W 001°54'510.2
2018-Apr-18 14:00N 55°48' W 001°47'510.4
2018-Apr-18 13:30N 55°45' W 001°39'511.0
2018-Apr-18 13:00N 55°41' W 001°32'611.5
2018-Apr-18 12:30N 55°38' W 001°24'611.6
2018-Apr-18 12:00N 55°33' W 001°18'611.9
2018-Apr-18 11:30N 55°28' W 001°12'1012.1
2018-Apr-18 10:43N 55°20' W 001°02'312.1
2018-Apr-18 10:30N 55°18' W 000°60'4411.3
2018-Apr-18 06:36N 54°42' W 000°15'110.3
2018-Apr-18 06:28N 54°41' W 000°14'510.0
2018-Apr-18 06:00N 54°37' W 000°09'5 9.7
2018-Apr-18 05:30N 54°33' W 000°04'5 9.4
2018-Apr-18 05:00N 54°29' E 000°00'5 9.4
2018-Apr-18 04:30N 54°25' E 000°04'5 9.6
2018-Apr-18 04:00N 54°21' E 000°08'5 9.8
2018-Apr-18 03:30N 54°16' E 000°12'510.1
2018-Apr-18 03:00N 54°12' E 000°16'510.5
2018-Apr-18 02:30N 54°08' E 000°20'611.2
2018-Apr-18 02:00N 54°03' E 000°26'5412.1
2018-Apr-17 21:29N 53°16' E 001°14'4 9.1
2018-Apr-17 21:00N 53°13' E 001°18'4 8.8
2018-Apr-17 20:30N 53°09' E 001°22'4 8.5
2018-Apr-17 20:00N 53°06' E 001°26'4 8.6
2018-Apr-17 19:30N 53°02' E 001°30'4 8.5
2018-Apr-17 19:00N 52°58' E 001°34'4 8.9
2018-Apr-17 18:30N 52°55' E 001°38'5 9.9
2018-Apr-17 18:00N 52°51' E 001°44'611.0
2018-Apr-17 17:30N 52°47' E 001°49'611.5
2018-Apr-17 17:00N 52°42' E 001°54'3013.8
2018-Apr-17 14:48N 52°12' E 001°51'413.6
2018-Apr-17 14:30N 52°08' E 001°50'713.8
2018-Apr-17 14:00N 52°01' E 001°49'613.0
2018-Apr-17 13:30N 51°54' E 001°49'612.1
2018-Apr-17 13:00N 51°48' E 001°49'611.9
2018-Apr-17 12:30N 51°42' E 001°50'611.4
2018-Apr-17 12:00N 51°37' E 001°52'611.5
2018-Apr-17 11:30N 51°31' E 001°54'510.8
2018-Apr-17 11:00N 51°26' E 001°58'4 8.7
2018-Apr-17 10:30N 51°23' E 002°02'510.1
2018-Apr-17 10:00N 51°19' E 001°57'5 9.2
2018-Apr-17 09:30N 51°15' E 001°52'4 9.0
2018-Apr-17 09:00N 51°12' E 001°48'4 8.7
2018-Apr-17 08:30N 51°09' E 001°44'4 8.2
2018-Apr-17 08:00N 51°05' E 001°40'4 8.2
2018-Apr-17 07:30N 51°02' E 001°36'4 8.7
2018-Apr-17 06:59N 50°58' E 001°33'5 9.0
2018-Apr-17 06:29N 50°54' E 001°30'5 9.4
2018-Apr-17 06:00N 50°50' E 001°27'510.2
2018-Apr-17 05:30N 50°45' E 001°22'510.0
2018-Apr-17 05:00N 50°41' E 001°18'710.6
2018-Apr-17 04:21N 50°37' E 001°09'410.5
2018-Apr-17 04:00N 50°35' E 001°04'510.7
2018-Apr-17 03:30N 50°32' E 000°58'810.5
2018-Apr-17 02:44N 50°29' E 000°46'210.6
2018-Apr-17 02:30N 50°28' E 000°42'610.5
2018-Apr-17 01:58N 50°27' E 000°34'510.5
2018-Apr-17 01:29N 50°26' E 000°26'610.5
2018-Apr-17 00:58N 50°24' E 000°18'510.8
2018-Apr-17 00:30N 50°23' E 000°10'611.1
2018-Apr-16 23:58N 50°21' E 000°01'511.2
2018-Apr-16 23:30N 50°22' W 000°07'611.7
2018-Apr-16 23:00N 50°22' W 000°16'611.9
2018-Apr-16 22:30N 50°25' W 000°24'612.4
2018-Apr-16 22:00N 50°28' W 000°33'713.1
2018-Apr-16 21:30N 50°30' W 000°43'713.1
2018-Apr-16 21:00N 50°31' W 000°53'714.1
2018-Apr-16 20:30N 50°31' W 001°04'815.0
2018-Apr-16 19:59N 50°31' W 001°16'714.4
2018-Apr-16 19:30N 50°33' W 001°27'713.4
2018-Apr-16 19:00N 50°35' W 001°37'612.5
2018-Apr-16 18:30N 50°37' W 001°46'611.5
2018-Apr-16 18:00N 50°39' W 001°55'4 7.4
2018-Apr-16 17:30N 50°42' W 001°58'1 1.9
2018-Apr-16 17:00N 50°42' W 001°59'0 0.0
2018-Apr-16 16:30N 50°42' W 001°59'0 0.0
2018-Apr-16 16:00N 50°42' W 001°59'0 0.0
2018-Apr-16 15:30N 50°42' W 001°59'0 0.0
2018-Apr-16 15:00N 50°42' W 001°59'0 0.0
2018-Apr-16 14:30N 50°42' W 001°59'0 0.0
2018-Apr-16 14:00N 50°42' W 001°59'0 0.0
2018-Apr-16 13:30N 50°42' W 001°59'0 0.0
2018-Apr-16 12:54N 50°42' W 001°59'0 0.0
2018-Apr-16 12:30N 50°42' W 001°59'0 0.0
2018-Apr-16 12:00N 50°42' W 001°59'0 0.0
2018-Apr-16 11:30N 50°42' W 001°59'0 0.0
2018-Apr-16 11:00N 50°42' W 001°59'0 0.0
2018-Apr-16 10:30N 50°42' W 001°59'0 0.0
2018-Apr-16 10:00N 50°42' W 001°59'0 0.0
2018-Apr-16 09:30N 50°42' W 001°59'0 0.0
2018-Apr-16 09:00N 50°42' W 001°59'0 0.0
2018-Apr-16 08:30N 50°42' W 001°59'0 0.0
2018-Apr-16 08:00N 50°42' W 001°59'0 0.0
2018-Apr-16 07:29N 50°42' W 001°59'0 0.0
2018-Apr-16 06:59N 50°42' W 001°59'0 0.0
2018-Apr-16 06:29N 50°42' W 001°59'0 0.0
2018-Apr-16 05:59N 50°42' W 001°59'0 0.0
2018-Apr-16 05:29N 50°42' W 001°59'0 0.0
2018-Apr-16 04:59N 50°42' W 001°59'0 0.0
2018-Apr-16 04:29N 50°42' W 001°59'0 0.0
2018-Apr-16 03:59N 50°42' W 001°59'0 0.0
2018-Apr-16 03:29N 50°42' W 001°59'0 0.0
2018-Apr-16 02:59N 50°42' W 001°59'0 0.0
2018-Apr-16 02:29N 50°42' W 001°59'0 0.0
2018-Apr-16 01:59N 50°42' W 001°59'0 0.0
2018-Apr-16 01:29N 50°42' W 001°59'0 0.0
2018-Apr-16 00:59N 50°42' W 001°59'0 0.0
2018-Apr-16 00:29N 50°42' W 001°59'0 0.0
2018-Apr-15 23:59N 50°42' W 001°59'0 0.0
2018-Apr-15 23:29N 50°42' W 001°59'0 0.0
2018-Apr-15 22:59N 50°42' W 001°59'0 0.0
2018-Apr-15 22:29N 50°42' W 001°59'0 0.0
2018-Apr-15 21:59N 50°42' W 001°59'0 0.0
2018-Apr-15 21:29N 50°42' W 001°59'0 0.0
2018-Apr-15 20:59N 50°42' W 001°59'0 0.0
2018-Apr-15 20:29N 50°42' W 001°59'  
Track history (hours):
 
Tides and Currents Weather Stations Pressure Air Temp Water Temp Dewpoint Dewpoint Depression Visibility Wind Speed Wind Dir Waves Ship Positions

Forseti

Last reported at 2018-Apr-25 20:16 UTC. Time now 2018-Apr-25 22:06 UTC.
Position N 55°19' E 019°12'.

Length 85 m; draft 3.8 m.

Type: Cargo ship. MMSI: 304010297.

Date/timePositionNaut miles runAvg speedWind from/ knotsBaromVisibWave heightAir tempDewpointWater temp
2018-Apr-25 20:16N 55°19' E 019°12'4 8.8
2018-Apr-25 19:50N 55°17' E 019°06'14 8.8
2018-Apr-25 18:15N 55°12' E 018°42'2 9.0
2018-Apr-25 18:00N 55°11' E 018°39'5 9.1
2018-Apr-25 17:29N 55°10' E 018°31'15210.2
2018-Apr-25 02:32N 54°38' E 014°13'1210.8
2018-Apr-25 01:27N 54°42' E 013°54'4710.7
2018-Apr-24 21:03N 54°36' E 012°33'110.9
2018-Apr-24 21:00N 54°36' E 012°32'1810.2
2018-Apr-24 19:15N 54°24' E 012°08'310.7
2018-Apr-24 19:00N 54°24' E 012°04'510.0
2018-Apr-24 18:30N 54°22' E 011°56'2210.6
2018-Apr-24 16:24N 54°06' E 011°30'411.0
2018-Apr-24 16:00N 54°03' E 011°25'5 9.5
2018-Apr-24 15:30N 53°59' E 011°20'5 9.6
2018-Apr-24 15:00N 53°56' E 011°26'2 3.9
2018-Apr-24 14:30N 53°54' E 011°28'0 0.0
2018-Apr-24 14:00N 53°54' E 011°28'0 0.0
2018-Apr-24 13:30N 53°54' E 011°28'0 0.0
2018-Apr-24 13:00N 53°54' E 011°28'0 0.0
2018-Apr-24 12:30N 53°54' E 011°28'0 0.0
2018-Apr-24 12:00N 53°54' E 011°28'0 0.0
2018-Apr-24 11:30N 53°54' E 011°28'0 0.0
2018-Apr-24 11:00N 53°54' E 011°28'0 0.0
2018-Apr-24 10:30N 53°54' E 011°28'0 0.0
2018-Apr-24 10:00N 53°54' E 011°28'0 0.0
2018-Apr-24 09:30N 53°54' E 011°28'0 0.0
2018-Apr-24 09:00N 53°54' E 011°28'0 0.0
2018-Apr-24 08:30N 53°54' E 011°28'0 0.1
2018-Apr-24 08:00N 53°54' E 011°28'0 0.0
2018-Apr-24 07:30N 53°54' E 011°28'0 0.0
2018-Apr-24 07:00N 53°54' E 011°28'0 0.0
2018-Apr-24 06:30N 53°54' E 011°28'0 0.0
2018-Apr-24 06:00N 53°54' E 011°28'0 0.0
2018-Apr-24 05:30N 53°54' E 011°28'0 0.0
2018-Apr-24 05:00N 53°54' E 011°28'0 0.0
2018-Apr-24 04:30N 53°54' E 011°28'0 0.0
2018-Apr-24 04:00N 53°54' E 011°28'0 0.0
2018-Apr-24 03:30N 53°54' E 011°28'0 0.0
2018-Apr-24 03:00N 53°54' E 011°28'0 0.0
2018-Apr-24 02:30N 53°54' E 011°28'0 0.0
2018-Apr-24 02:00N 53°54' E 011°28'0 0.0
2018-Apr-24 01:30N 53°54' E 011°28'0 0.0
2018-Apr-24 01:00N 53°54' E 011°28'0 0.0
2018-Apr-24 00:30N 53°54' E 011°28'0 0.0
2018-Apr-24 00:00N 53°54' E 011°28'0 0.0
2018-Apr-23 23:30N 53°54' E 011°28'0 0.0
2018-Apr-23 23:00N 53°54' E 011°28'0 0.0
2018-Apr-23 22:30N 53°54' E 011°28'0 0.0
2018-Apr-23 22:00N 53°54' E 011°28'0 0.0
2018-Apr-23 21:27N 53°54' E 011°28'0 0.0
2018-Apr-23 21:00N 53°54' E 011°28'0 0.0
2018-Apr-23 20:30N 53°54' E 011°28'0 0.0
2018-Apr-23 20:00N 53°54' E 011°28'0 0.0
2018-Apr-23 19:30N 53°54' E 011°28'0 0.0
2018-Apr-23 19:00N 53°54' E 011°28'0 0.0
2018-Apr-23 18:30N 53°54' E 011°28'0 0.0
2018-Apr-23 18:00N 53°54' E 011°28'0 0.0
2018-Apr-23 17:30N 53°54' E 011°28'0 0.0
2018-Apr-23 17:00N 53°54' E 011°28'0 0.0
2018-Apr-23 16:30N 53°54' E 011°28'0 0.0
2018-Apr-23 16:00N 53°54' E 011°28'0 0.0
2018-Apr-23 15:30N 53°54' E 011°28'0 0.0
2018-Apr-23 15:00N 53°54' E 011°28'0 0.0
2018-Apr-23 14:30N 53°54' E 011°28'0 0.0
2018-Apr-23 14:00N 53°54' E 011°28'0 0.0
2018-Apr-23 13:30N 53°54' E 011°28'0 0.0
2018-Apr-23 12:59N 53°54' E 011°28'0 0.0
2018-Apr-23 12:29N 53°54' E 011°28'0 0.0
2018-Apr-23 11:59N 53°54' E 011°28'0 0.0
2018-Apr-23 11:29N 53°54' E 011°28'0 0.0
2018-Apr-23 10:59N 53°54' E 011°28'0 0.0
2018-Apr-23 10:29N 53°54' E 011°28'0 0.0
2018-Apr-23 09:59N 53°54' E 011°28'0 0.0
2018-Apr-23 09:29N 53°54' E 011°28'0 0.0
2018-Apr-23 08:59N 53°54' E 011°28'0 0.0
2018-Apr-23 08:29N 53°54' E 011°28'0 0.0
2018-Apr-23 07:59N 53°54' E 011°28'0 0.0
2018-Apr-23 07:29N 53°54' E 011°28'0 0.0
2018-Apr-23 06:59N 53°54' E 011°28'0 0.0
2018-Apr-23 06:29N 53°54' E 011°28'0 0.0
2018-Apr-23 05:59N 53°54' E 011°28'0 0.0
2018-Apr-23 05:29N 53°54' E 011°28'0 0.0
2018-Apr-23 04:59N 53°54' E 011°28'0 0.0
2018-Apr-23 04:29N 53°54' E 011°28'0 0.0
2018-Apr-23 03:59N 53°54' E 011°28'0 0.0
2018-Apr-23 03:29N 53°54' E 011°28'0 0.0
2018-Apr-23 02:59N 53°54' E 011°28'0 0.0
2018-Apr-23 02:29N 53°54' E 011°28'0 0.0
2018-Apr-23 01:56N 53°54' E 011°28'0 0.0
2018-Apr-23 01:29N 53°54' E 011°28'0 0.0
2018-Apr-23 00:59N 53°54' E 011°28'0 0.0
2018-Apr-23 00:29N 53°54' E 011°28'0 0.0
2018-Apr-22 23:59N 53°54' E 011°28'0 0.0
2018-Apr-22 23:29N 53°54' E 011°28'0 0.0
2018-Apr-22 22:59N 53°54' E 011°28'0 0.0
2018-Apr-22 22:29N 53°54' E 011°28'0 0.0
2018-Apr-22 21:59N 53°54' E 011°28'0 0.0
2018-Apr-22 21:29N 53°54' E 011°28'0 0.0
2018-Apr-22 20:59N 53°54' E 011°28'0 0.0
2018-Apr-22 20:29N 53°54' E 011°28'0 0.0
2018-Apr-22 19:59N 53°54' E 011°28'0 0.0
2018-Apr-22 19:29N 53°54' E 011°28'0 0.0
2018-Apr-22 18:59N 53°54' E 011°28'0 0.0
2018-Apr-22 18:29N 53°54' E 011°28'0 0.0
2018-Apr-22 18:00N 53°54' E 011°28'2 3.8
2018-Apr-22 17:30N 53°55' E 011°26'5 9.1
2018-Apr-22 17:00N 53°59' E 011°20'4 7.9
2018-Apr-22 16:30N 54°02' E 011°24'4 8.5
2018-Apr-22 16:00N 54°06' E 011°26'610.3
2018-Apr-22 15:27N 54°12' E 011°26'510.4
2018-Apr-22 14:55N 54°17' E 011°25'410.4
2018-Apr-22 14:30N 54°22' E 011°24'510.0
2018-Apr-22 14:00N 54°26' E 011°23'510.0
2018-Apr-22 13:30N 54°31' E 011°20'510.0
2018-Apr-22 13:00N 54°34' E 011°13'510.2
2018-Apr-22 12:30N 54°37' E 011°06'510.0
2018-Apr-22 12:00N 54°39' E 010°59'5 9.2
2018-Apr-22 11:30N 54°42' E 010°52'5 9.5
2018-Apr-22 11:00N 54°47' E 010°52'510.1
2018-Apr-22 10:30N 54°52' E 010°53'510.5
2018-Apr-22 10:00N 54°57' E 010°57'510.4
2018-Apr-22 09:30N 55°02' E 011°01'611.0
2018-Apr-22 09:00N 55°07' E 011°02'510.9
2018-Apr-22 08:30N 55°12' E 011°03'510.8
2018-Apr-22 08:00N 55°18' E 011°02'510.7
2018-Apr-22 07:30N 55°23' E 011°00'610.8
2018-Apr-22 06:56N 55°28' E 010°55'410.5
2018-Apr-22 06:30N 55°32' E 010°51'610.9
2018-Apr-22 05:58N 55°38' E 010°47'9010.0
2018-Apr-21 20:54N 57°08' E 010°46'810.1
2018-Apr-21 20:09N 57°15' E 010°42'2 9.6
2018-Apr-21 19:59N 57°17' E 010°42'5 9.7
2018-Apr-21 19:30N 57°21' E 010°42'5 9.8
2018-Apr-21 19:00N 57°26' E 010°43'5 9.4
2018-Apr-21 18:30N 57°31' E 010°43'5 9.4
2018-Apr-21 18:00N 57°36' E 010°43'5 9.6
2018-Apr-21 17:30N 57°40' E 010°44'510.2
2018-Apr-21 17:00N 57°46' E 010°44'711.2
2018-Apr-21 16:24N 57°46' E 010°32'511.5
2018-Apr-21 16:00N 57°44' E 010°23'510.8
2018-Apr-21 15:30N 57°42' E 010°14'510.7
2018-Apr-21 15:00N 57°41' E 010°04'386 9.5
2018-Apr-19 22:33N 56°14' W 001°26'110.4
2018-Apr-19 22:26N 56°14' W 001°28'510.4
2018-Apr-19 22:00N 56°13' W 001°36'510.4
2018-Apr-19 21:30N 56°12' W 001°45'710.5
2018-Apr-19 20:50N 56°11' W 001°58'310.5
2018-Apr-19 20:30N 56°10' W 002°04'510.7
2018-Apr-19 20:00N 56°09' W 002°13'510.4
2018-Apr-19 19:30N 56°08' W 002°22'510.4
2018-Apr-19 19:00N 56°07' W 002°31'611.5
2018-Apr-19 18:30N 56°06' W 002°41'611.2
2018-Apr-19 18:00N 56°05' W 002°51'510.6
2018-Apr-19 17:30N 56°03' W 003°00'510.2
2018-Apr-19 17:00N 56°03' W 003°09'510.0
2018-Apr-19 16:30N 56°01' W 003°18'3 0.2
2018-Apr-19 03:36N 56°01' W 003°24'0 0.0
2018-Apr-19 03:30N 56°01' W 003°24'0 0.0
2018-Apr-19 02:51N 56°01' W 003°24'0 0.0
2018-Apr-19 02:30N 56°01' W 003°24'0 0.0
2018-Apr-19 02:00N 56°01' W 003°24'1 1.9
2018-Apr-19 01:30N 56°01' W 003°22'3 6.2
2018-Apr-19 01:00N 56°02' W 003°17'611.0
2018-Apr-19 00:30N 56°03' W 003°07'1 1.7
2018-Apr-19 00:00N 56°02' W 003°07'0 0.1
2018-Apr-18 23:30N 56°02' W 003°07'0 0.0
2018-Apr-18 23:00N 56°02' W 003°07'0 0.0
2018-Apr-18 22:30N 56°02' W 003°07'0 0.0
2018-Apr-18 22:00N 56°02' W 003°07'0 0.0
2018-Apr-18 21:30N 56°02' W 003°07'0 0.0
2018-Apr-18 21:00N 56°02' W 003°07'0 0.0
2018-Apr-18 20:30N 56°02' W 003°07'0 0.0
2018-Apr-18 20:00N 56°02' W 003°07'0 0.0
2018-Apr-18 19:30N 56°02' W 003°07'1 1.1
2018-Apr-18 19:00N 56°02' W 003°06'5 9.5
2018-Apr-18 18:30N 56°04' W 002°58'510.3
2018-Apr-18 18:00N 56°05' W 002°49'510.1
2018-Apr-18 17:30N 56°05' W 002°40'5 9.9
2018-Apr-18 17:00N 56°04' W 002°31'510.5
2018-Apr-18 16:30N 56°01' W 002°23'5 9.7
2018-Apr-18 16:00N 55°59' W 002°15'5 9.5
2018-Apr-18 15:30N 55°57' W 002°08'510.0
2018-Apr-18 15:00N 55°54' W 002°01'5 9.9
2018-Apr-18 14:30N 55°51' W 001°54'510.2
2018-Apr-18 14:00N 55°48' W 001°47'510.4
2018-Apr-18 13:30N 55°45' W 001°39'511.0
2018-Apr-18 13:00N 55°41' W 001°32'611.5
2018-Apr-18 12:30N 55°38' W 001°24'611.6
2018-Apr-18 12:00N 55°33' W 001°18'611.9
2018-Apr-18 11:30N 55°28' W 001°12'1012.1
2018-Apr-18 10:43N 55°20' W 001°02'312.1
2018-Apr-18 10:30N 55°18' W 000°60'4411.3
2018-Apr-18 06:36N 54°42' W 000°15'110.3
2018-Apr-18 06:28N 54°41' W 000°14'510.0
2018-Apr-18 06:00N 54°37' W 000°09'5 9.7
2018-Apr-18 05:30N 54°33' W 000°04'5 9.4
2018-Apr-18 05:00N 54°29' E 000°00'5 9.4
2018-Apr-18 04:30N 54°25' E 000°04'5 9.6
2018-Apr-18 04:00N 54°21' E 000°08'5 9.8
2018-Apr-18 03:30N 54°16' E 000°12'510.1
2018-Apr-18 03:00N 54°12' E 000°16'510.5
2018-Apr-18 02:30N 54°08' E 000°20'611.2
2018-Apr-18 02:00N 54°03' E 000°26'5412.1
2018-Apr-17 21:29N 53°16' E 001°14'4 9.1
2018-Apr-17 21:00N 53°13' E 001°18'4 8.8
2018-Apr-17 20:30N 53°09' E 001°22'4 8.5
2018-Apr-17 20:00N 53°06' E 001°26'4 8.6
2018-Apr-17 19:30N 53°02' E 001°30'4 8.5
2018-Apr-17 19:00N 52°58' E 001°34'4 8.9
2018-Apr-17 18:30N 52°55' E 001°38'5 9.9
2018-Apr-17 18:00N 52°51' E 001°44'611.0
2018-Apr-17 17:30N 52°47' E 001°49'611.5
2018-Apr-17 17:00N 52°42' E 001°54'3013.8
2018-Apr-17 14:48N 52°12' E 001°51'413.6
2018-Apr-17 14:30N 52°08' E 001°50'713.8
2018-Apr-17 14:00N 52°01' E 001°49'613.0
2018-Apr-17 13:30N 51°54' E 001°49'612.1
2018-Apr-17 13:00N 51°48' E 001°49'611.9
2018-Apr-17 12:30N 51°42' E 001°50'611.4
2018-Apr-17 12:00N 51°37' E 001°52'611.5
2018-Apr-17 11:30N 51°31' E 001°54'510.8
2018-Apr-17 11:00N 51°26' E 001°58'4 8.7
2018-Apr-17 10:30N 51°23' E 002°02'510.1
2018-Apr-17 10:00N 51°19' E 001°57'5 9.2
2018-Apr-17 09:30N 51°15' E 001°52'4 9.0
2018-Apr-17 09:00N 51°12' E 001°48'4 8.7
2018-Apr-17 08:30N 51°09' E 001°44'4 8.2
2018-Apr-17 08:00N 51°05' E 001°40'4 8.2
2018-Apr-17 07:30N 51°02' E 001°36'4 8.7
2018-Apr-17 06:59N 50°58' E 001°33'5 9.0
2018-Apr-17 06:29N 50°54' E 001°30'5 9.4
2018-Apr-17 06:00N 50°50' E 001°27'510.2
2018-Apr-17 05:30N 50°45' E 001°22'510.0
2018-Apr-17 05:00N 50°41' E 001°18'710.6
2018-Apr-17 04:21N 50°37' E 001°09'410.5
2018-Apr-17 04:00N 50°35' E 001°04'510.7
2018-Apr-17 03:30N 50°32' E 000°58'810.5
2018-Apr-17 02:44N 50°29' E 000°46'210.6
2018-Apr-17 02:30N 50°28' E 000°42'610.5
2018-Apr-17 01:58N 50°27' E 000°34'510.5
2018-Apr-17 01:29N 50°26' E 000°26'610.5
2018-Apr-17 00:58N 50°24' E 000°18'510.8
2018-Apr-17 00:30N 50°23' E 000°10'611.1
2018-Apr-16 23:58N 50°21' E 000°01'511.2
2018-Apr-16 23:30N 50°22' W 000°07'611.7
2018-Apr-16 23:00N 50°22' W 000°16'611.9
2018-Apr-16 22:30N 50°25' W 000°24'612.4
2018-Apr-16 22:00N 50°28' W 000°33'713.1
2018-Apr-16 21:30N 50°30' W 000°43'713.1
2018-Apr-16 21:00N 50°31' W 000°53'714.1
2018-Apr-16 20:30N 50°31' W 001°04'815.0
2018-Apr-16 19:59N 50°31' W 001°16'714.4
2018-Apr-16 19:30N 50°33' W 001°27'713.4
2018-Apr-16 19:00N 50°35' W 001°37'612.5
2018-Apr-16 18:30N 50°37' W 001°46'611.5
2018-Apr-16 18:00N 50°39' W 001°55'4 7.4
2018-Apr-16 17:30N 50°42' W 001°58'1 1.9
2018-Apr-16 17:00N 50°42' W 001°59'0 0.0
2018-Apr-16 16:30N 50°42' W 001°59'0 0.0
2018-Apr-16 16:00N 50°42' W 001°59'0 0.0
2018-Apr-16 15:30N 50°42' W 001°59'0 0.0
2018-Apr-16 15:00N 50°42' W 001°59'0 0.0
2018-Apr-16 14:30N 50°42' W 001°59'0 0.0
2018-Apr-16 14:00N 50°42' W 001°59'0 0.0
2018-Apr-16 13:30N 50°42' W 001°59'0 0.0
2018-Apr-16 12:54N 50°42' W 001°59'0 0.0
2018-Apr-16 12:30N 50°42' W 001°59'0 0.0
2018-Apr-16 12:00N 50°42' W 001°59'0 0.0
2018-Apr-16 11:30N 50°42' W 001°59'0 0.0
2018-Apr-16 11:00N 50°42' W 001°59'0 0.0
2018-Apr-16 10:30N 50°42' W 001°59'0 0.0
2018-Apr-16 10:00N 50°42' W 001°59'0 0.0
2018-Apr-16 09:30N 50°42' W 001°59'0 0.0
2018-Apr-16 09:00N 50°42' W 001°59'0 0.0
2018-Apr-16 08:30N 50°42' W 001°59'0 0.0
2018-Apr-16 08:00N 50°42' W 001°59'0 0.0
2018-Apr-16 07:29N 50°42' W 001°59'0 0.0
2018-Apr-16 06:59N 50°42' W 001°59'0 0.0
2018-Apr-16 06:29N 50°42' W 001°59'0 0.0
2018-Apr-16 05:59N 50°42' W 001°59'0 0.0
2018-Apr-16 05:29N 50°42' W 001°59'0 0.0
2018-Apr-16 04:59N 50°42' W 001°59'0 0.0
2018-Apr-16 04:29N 50°42' W 001°59'0 0.0
2018-Apr-16 03:59N 50°42' W 001°59'0 0.0
2018-Apr-16 03:29N 50°42' W 001°59'0 0.0
2018-Apr-16 02:59N 50°42' W 001°59'0 0.0
2018-Apr-16 02:29N 50°42' W 001°59'0 0.0
2018-Apr-16 01:59N 50°42' W 001°59'0 0.0
2018-Apr-16 01:29N 50°42' W 001°59'0 0.0
2018-Apr-16 00:59N 50°42' W 001°59'0 0.0
2018-Apr-16 00:29N 50°42' W 001°59'0 0.0
2018-Apr-15 23:59N 50°42' W 001°59'0 0.0
2018-Apr-15 23:29N 50°42' W 001°59'0 0.0
2018-Apr-15 22:59N 50°42' W 001°59'0 0.0
2018-Apr-15 22:29N 50°42' W 001°59'0 0.0
2018-Apr-15 21:59N 50°42' W 001°59'0 0.0
2018-Apr-15 21:29N 50°42' W 001°59'0 0.0
2018-Apr-15 20:59N 50°42' W 001°59'0 0.0
2018-Apr-15 20:29N 50°42' W 001°59'  

Dump ship's entire track history